sensor_id;sensor_type;location;lat;lon;timestamp;P1;durP1;ratioP1;P2;durP2;ratioP2
52180;SDS011;38158;53.338;6.514;2023-12-20T00:00:59;15.75;;;2.28;;
52180;SDS011;38158;53.338;6.514;2023-12-20T00:03:25;12.38;;;1.80;;
52180;SDS011;38158;53.338;6.514;2023-12-20T00:05:50;14.05;;;2.47;;
52180;SDS011;38158;53.338;6.514;2023-12-20T00:08:16;10.40;;;1.70;;
52180;SDS011;38158;53.338;6.514;2023-12-20T00:10:43;15.10;;;2.05;;
52180;SDS011;38158;53.338;6.514;2023-12-20T00:13:09;13.90;;;2.25;;
52180;SDS011;38158;53.338;6.514;2023-12-20T00:15:35;10.48;;;1.88;;
52180;SDS011;38158;53.338;6.514;2023-12-20T00:18:00;10.77;;;2.08;;
52180;SDS011;38158;53.338;6.514;2023-12-20T00:20:26;11.18;;;2.42;;
52180;SDS011;38158;53.338;6.514;2023-12-20T00:22:55;13.43;;;1.80;;
52180;SDS011;38158;53.338;6.514;2023-12-20T00:25:23;11.98;;;1.80;;
52180;SDS011;38158;53.338;6.514;2023-12-20T00:27:49;13.20;;;2.20;;
52180;SDS011;38158;53.338;6.514;2023-12-20T00:30:14;12.15;;;2.10;;
52180;SDS011;38158;53.338;6.514;2023-12-20T00:32:40;11.93;;;2.80;;
52180;SDS011;38158;53.338;6.514;2023-12-20T00:35:11;12.90;;;2.03;;
52180;SDS011;38158;53.338;6.514;2023-12-20T00:37:38;11.32;;;1.83;;
52180;SDS011;38158;53.338;6.514;2023-12-20T00:40:05;13.43;;;2.20;;
52180;SDS011;38158;53.338;6.514;2023-12-20T00:42:31;15.63;;;2.55;;
52180;SDS011;38158;53.338;6.514;2023-12-20T00:44:58;17.77;;;2.88;;
52180;SDS011;38158;53.338;6.514;2023-12-20T00:47:24;14.55;;;2.72;;
52180;SDS011;38158;53.338;6.514;2023-12-20T00:49:49;16.70;;;2.15;;
52180;SDS011;38158;53.338;6.514;2023-12-20T00:52:15;14.55;;;2.28;;
52180;SDS011;38158;53.338;6.514;2023-12-20T00:54:42;16.08;;;2.35;;
52180;SDS011;38158;53.338;6.514;2023-12-20T00:57:08;13.90;;;2.10;;
52180;SDS011;38158;53.338;6.514;2023-12-20T00:59:34;12.13;;;2.00;;
52180;SDS011;38158;53.338;6.514;2023-12-20T01:02:00;10.73;;;2.13;;
52180;SDS011;38158;53.338;6.514;2023-12-20T01:04:26;16.35;;;2.78;;
52180;SDS011;38158;53.338;6.514;2023-12-20T01:06:52;14.38;;;2.38;;
52180;SDS011;38158;53.338;6.514;2023-12-20T01:09:18;10.13;;;2.40;;
52180;SDS011;38158;53.338;6.514;2023-12-20T01:11:44;12.15;;;2.30;;
52180;SDS011;38158;53.338;6.514;2023-12-20T01:16:37;13.43;;;2.38;;
52180;SDS011;38158;53.338;6.514;2023-12-20T01:19:02;14.70;;;2.55;;
52180;SDS011;38158;53.338;6.514;2023-12-20T01:21:28;15.25;;;2.30;;
52180;SDS011;38158;53.338;6.514;2023-12-20T01:23:53;14.20;;;2.35;;
52180;SDS011;38158;53.338;6.514;2023-12-20T01:26:19;14.65;;;3.08;;
52180;SDS011;38158;53.338;6.514;2023-12-20T01:28:45;16.52;;;2.47;;
52180;SDS011;38158;53.338;6.514;2023-12-20T01:31:10;13.13;;;2.40;;
52180;SDS011;38158;53.338;6.514;2023-12-20T01:33:36;9.85;;;2.10;;
52180;SDS011;38158;53.338;6.514;2023-12-20T01:36:02;13.68;;;2.28;;
52180;SDS011;38158;53.338;6.514;2023-12-20T01:38:28;10.52;;;2.08;;
52180;SDS011;38158;53.338;6.514;2023-12-20T01:40:54;13.13;;;2.38;;
52180;SDS011;38158;53.338;6.514;2023-12-20T01:43:20;17.08;;;2.28;;
52180;SDS011;38158;53.338;6.514;2023-12-20T01:45:46;14.05;;;2.05;;
52180;SDS011;38158;53.338;6.514;2023-12-20T01:48:12;19.25;;;2.88;;
52180;SDS011;38158;53.338;6.514;2023-12-20T01:50:41;15.90;;;2.38;;
52180;SDS011;38158;53.338;6.514;2023-12-20T01:55:34;15.27;;;2.05;;
52180;SDS011;38158;53.338;6.514;2023-12-20T01:58:02;15.77;;;2.42;;
52180;SDS011;38158;53.338;6.514;2023-12-20T02:00:28;18.85;;;2.42;;
52180;SDS011;38158;53.338;6.514;2023-12-20T02:02:55;19.33;;;2.78;;
52180;SDS011;38158;53.338;6.514;2023-12-20T02:05:22;15.77;;;3.17;;
52180;SDS011;38158;53.338;6.514;2023-12-20T02:07:48;21.95;;;3.20;;
52180;SDS011;38158;53.338;6.514;2023-12-20T02:10:15;15.13;;;2.97;;
52180;SDS011;38158;53.338;6.514;2023-12-20T02:12:41;15.60;;;3.22;;
52180;SDS011;38158;53.338;6.514;2023-12-20T02:15:06;14.70;;;2.90;;
52180;SDS011;38158;53.338;6.514;2023-12-20T02:17:32;15.85;;;3.42;;
52180;SDS011;38158;53.338;6.514;2023-12-20T02:19:58;14.82;;;2.97;;
52180;SDS011;38158;53.338;6.514;2023-12-20T02:22:24;21.05;;;3.63;;
52180;SDS011;38158;53.338;6.514;2023-12-20T02:24:50;19.83;;;3.05;;
52180;SDS011;38158;53.338;6.514;2023-12-20T02:27:17;17.17;;;3.60;;
52180;SDS011;38158;53.338;6.514;2023-12-20T02:29:44;17.10;;;2.88;;
52180;SDS011;38158;53.338;6.514;2023-12-20T02:32:13;20.75;;;3.45;;
52180;SDS011;38158;53.338;6.514;2023-12-20T02:34:39;19.02;;;3.47;;
52180;SDS011;38158;53.338;6.514;2023-12-20T02:37:05;22.83;;;3.55;;
52180;SDS011;38158;53.338;6.514;2023-12-20T02:39:30;20.30;;;3.63;;
52180;SDS011;38158;53.338;6.514;2023-12-20T02:41:56;24.60;;;3.88;;
52180;SDS011;38158;53.338;6.514;2023-12-20T02:44:21;22.70;;;3.55;;
52180;SDS011;38158;53.338;6.514;2023-12-20T02:46:47;22.35;;;3.80;;
52180;SDS011;38158;53.338;6.514;2023-12-20T02:49:13;17.67;;;3.35;;
52180;SDS011;38158;53.338;6.514;2023-12-20T02:51:38;22.15;;;3.70;;
52180;SDS011;38158;53.338;6.514;2023-12-20T02:54:04;20.35;;;3.72;;
52180;SDS011;38158;53.338;6.514;2023-12-20T02:56:31;19.20;;;3.33;;
52180;SDS011;38158;53.338;6.514;2023-12-20T02:59:00;24.60;;;4.22;;
52180;SDS011;38158;53.338;6.514;2023-12-20T03:01:27;25.25;;;3.83;;
52180;SDS011;38158;53.338;6.514;2023-12-20T03:03:54;17.17;;;3.17;;
52180;SDS011;38158;53.338;6.514;2023-12-20T03:06:19;21.08;;;3.72;;
52180;SDS011;38158;53.338;6.514;2023-12-20T03:08:45;22.52;;;4.13;;
52180;SDS011;38158;53.338;6.514;2023-12-20T03:11:11;23.38;;;4.95;;
52180;SDS011;38158;53.338;6.514;2023-12-20T03:13:37;21.70;;;4.15;;
52180;SDS011;38158;53.338;6.514;2023-12-20T03:16:12;27.88;;;3.85;;
52180;SDS011;38158;53.338;6.514;2023-12-20T03:18:38;22.73;;;3.88;;
52180;SDS011;38158;53.338;6.514;2023-12-20T03:21:05;18.65;;;3.45;;
52180;SDS011;38158;53.338;6.514;2023-12-20T03:23:31;19.73;;;3.57;;
52180;SDS011;38158;53.338;6.514;2023-12-20T03:26:00;18.20;;;3.67;;
52180;SDS011;38158;53.338;6.514;2023-12-20T03:28:26;12.35;;;2.47;;
52180;SDS011;38158;53.338;6.514;2023-12-20T03:30:51;13.73;;;2.42;;
52180;SDS011;38158;53.338;6.514;2023-12-20T03:33:17;16.52;;;3.38;;
52180;SDS011;38158;53.338;6.514;2023-12-20T03:35:44;13.18;;;2.30;;
52180;SDS011;38158;53.338;6.514;2023-12-20T03:38:10;12.07;;;2.40;;
52180;SDS011;38158;53.338;6.514;2023-12-20T03:40:36;18.55;;;2.50;;
52180;SDS011;38158;53.338;6.514;2023-12-20T03:43:01;16.65;;;2.47;;
52180;SDS011;38158;53.338;6.514;2023-12-20T03:45:27;18.58;;;2.83;;
52180;SDS011;38158;53.338;6.514;2023-12-20T03:47:52;14.07;;;2.60;;
52180;SDS011;38158;53.338;6.514;2023-12-20T03:52:47;22.63;;;3.97;;
52180;SDS011;38158;53.338;6.514;2023-12-20T03:55:12;20.77;;;3.42;;
52180;SDS011;38158;53.338;6.514;2023-12-20T03:57:38;23.48;;;3.95;;
52180;SDS011;38158;53.338;6.514;2023-12-20T04:00:04;15.60;;;3.08;;
52180;SDS011;38158;53.338;6.514;2023-12-20T04:02:34;23.33;;;4.35;;
52180;SDS011;38158;53.338;6.514;2023-12-20T04:04:59;21.17;;;4.13;;
52180;SDS011;38158;53.338;6.514;2023-12-20T04:07:25;21.30;;;4.18;;
52180;SDS011;38158;53.338;6.514;2023-12-20T04:09:51;21.05;;;4.25;;
52180;SDS011;38158;53.338;6.514;2023-12-20T04:12:16;23.58;;;4.18;;
52180;SDS011;38158;53.338;6.514;2023-12-20T04:14:42;21.38;;;3.80;;
52180;SDS011;38158;53.338;6.514;2023-12-20T04:17:07;19.92;;;3.63;;
52180;SDS011;38158;53.338;6.514;2023-12-20T04:19:33;16.25;;;3.38;;
52180;SDS011;38158;53.338;6.514;2023-12-20T04:21:59;23.90;;;4.70;;
52180;SDS011;38158;53.338;6.514;2023-12-20T04:24:25;28.52;;;4.35;;
52180;SDS011;38158;53.338;6.514;2023-12-20T04:26:50;20.20;;;3.95;;
52180;SDS011;38158;53.338;6.514;2023-12-20T04:29:16;23.27;;;3.70;;
52180;SDS011;38158;53.338;6.514;2023-12-20T04:31:42;20.65;;;4.60;;
52180;SDS011;38158;53.338;6.514;2023-12-20T04:34:07;20.80;;;3.65;;
52180;SDS011;38158;53.338;6.514;2023-12-20T04:36:33;21.50;;;4.03;;
52180;SDS011;38158;53.338;6.514;2023-12-20T04:38:59;22.52;;;4.03;;
52180;SDS011;38158;53.338;6.514;2023-12-20T04:41:24;24.05;;;4.50;;
52180;SDS011;38158;53.338;6.514;2023-12-20T04:43:50;17.50;;;3.30;;
52180;SDS011;38158;53.338;6.514;2023-12-20T04:46:16;23.40;;;5.03;;
52180;SDS011;38158;53.338;6.514;2023-12-20T04:48:41;16.95;;;3.63;;
52180;SDS011;38158;53.338;6.514;2023-12-20T04:51:07;21.85;;;3.83;;
52180;SDS011;38158;53.338;6.514;2023-12-20T04:53:33;25.90;;;4.25;;
52180;SDS011;38158;53.338;6.514;2023-12-20T04:55:58;23.00;;;4.60;;
52180;SDS011;38158;53.338;6.514;2023-12-20T04:58:24;20.42;;;4.25;;
52180;SDS011;38158;53.338;6.514;2023-12-20T05:00:50;21.85;;;3.70;;
52180;SDS011;38158;53.338;6.514;2023-12-20T05:03:16;25.02;;;4.68;;
52180;SDS011;38158;53.338;6.514;2023-12-20T05:05:41;22.33;;;4.03;;
52180;SDS011;38158;53.338;6.514;2023-12-20T05:08:07;20.63;;;3.83;;
52180;SDS011;38158;53.338;6.514;2023-12-20T05:10:32;26.08;;;4.53;;
52180;SDS011;38158;53.338;6.514;2023-12-20T05:12:58;25.63;;;4.15;;
52180;SDS011;38158;53.338;6.514;2023-12-20T05:15:24;12.02;;;2.63;;
52180;SDS011;38158;53.338;6.514;2023-12-20T05:17:49;19.13;;;4.00;;
52180;SDS011;38158;53.338;6.514;2023-12-20T05:20:15;24.55;;;4.28;;
52180;SDS011;38158;53.338;6.514;2023-12-20T05:22:41;25.00;;;4.00;;
52180;SDS011;38158;53.338;6.514;2023-12-20T05:25:09;22.48;;;4.80;;
52180;SDS011;38158;53.338;6.514;2023-12-20T05:27:35;20.20;;;3.80;;
52180;SDS011;38158;53.338;6.514;2023-12-20T05:30:01;22.63;;;4.45;;
52180;SDS011;38158;53.338;6.514;2023-12-20T05:32:26;27.45;;;4.43;;
52180;SDS011;38158;53.338;6.514;2023-12-20T05:34:52;20.70;;;4.10;;
52180;SDS011;38158;53.338;6.514;2023-12-20T05:37:18;21.75;;;3.83;;
52180;SDS011;38158;53.338;6.514;2023-12-20T05:39:43;18.77;;;3.65;;
52180;SDS011;38158;53.338;6.514;2023-12-20T05:42:09;24.27;;;4.80;;
52180;SDS011;38158;53.338;6.514;2023-12-20T05:44:34;27.77;;;4.93;;
52180;SDS011;38158;53.338;6.514;2023-12-20T05:47:01;20.20;;;3.75;;
52180;SDS011;38158;53.338;6.514;2023-12-20T05:49:27;24.77;;;4.25;;
52180;SDS011;38158;53.338;6.514;2023-12-20T05:51:52;28.70;;;4.63;;
52180;SDS011;38158;53.338;6.514;2023-12-20T05:54:19;30.63;;;4.82;;
52180;SDS011;38158;53.338;6.514;2023-12-20T05:56:44;23.48;;;4.32;;
52180;SDS011;38158;53.338;6.514;2023-12-20T05:59:10;29.00;;;4.10;;
52180;SDS011;38158;53.338;6.514;2023-12-20T06:01:36;23.80;;;3.72;;
52180;SDS011;38158;53.338;6.514;2023-12-20T06:04:01;21.77;;;4.45;;
52180;SDS011;38158;53.338;6.514;2023-12-20T06:06:28;16.75;;;4.28;;
52180;SDS011;38158;53.338;6.514;2023-12-20T06:08:54;20.52;;;3.63;;
52180;SDS011;38158;53.338;6.514;2023-12-20T06:11:19;21.52;;;4.57;;
52180;SDS011;38158;53.338;6.514;2023-12-20T06:13:45;26.23;;;3.88;;
52180;SDS011;38158;53.338;6.514;2023-12-20T06:16:10;24.45;;;3.88;;
52180;SDS011;38158;53.338;6.514;2023-12-20T06:18:36;24.80;;;4.38;;
52180;SDS011;38158;53.338;6.514;2023-12-20T06:21:02;23.40;;;4.13;;
52180;SDS011;38158;53.338;6.514;2023-12-20T06:23:28;20.42;;;3.63;;
52180;SDS011;38158;53.338;6.514;2023-12-20T06:25:54;23.55;;;4.57;;
52180;SDS011;38158;53.338;6.514;2023-12-20T06:28:19;21.90;;;4.18;;
52180;SDS011;38158;53.338;6.514;2023-12-20T06:30:45;20.48;;;3.42;;
52180;SDS011;38158;53.338;6.514;2023-12-20T06:33:14;22.63;;;3.88;;
52180;SDS011;38158;53.338;6.514;2023-12-20T06:35:39;25.08;;;4.50;;
52180;SDS011;38158;53.338;6.514;2023-12-20T06:38:05;21.83;;;3.40;;
52180;SDS011;38158;53.338;6.514;2023-12-20T06:40:31;19.73;;;4.20;;
52180;SDS011;38158;53.338;6.514;2023-12-20T06:42:56;23.90;;;4.88;;
52180;SDS011;38158;53.338;6.514;2023-12-20T06:45:22;23.55;;;4.80;;
52180;SDS011;38158;53.338;6.514;2023-12-20T06:47:48;22.55;;;4.30;;
52180;SDS011;38158;53.338;6.514;2023-12-20T06:50:13;22.42;;;3.92;;
52180;SDS011;38158;53.338;6.514;2023-12-20T06:52:39;27.65;;;4.93;;
52180;SDS011;38158;53.338;6.514;2023-12-20T06:55:05;15.57;;;3.67;;
52180;SDS011;38158;53.338;6.514;2023-12-20T06:57:30;18.77;;;4.53;;
52180;SDS011;38158;53.338;6.514;2023-12-20T06:59:57;21.17;;;4.82;;
52180;SDS011;38158;53.338;6.514;2023-12-20T07:02:23;19.35;;;4.50;;
52180;SDS011;38158;53.338;6.514;2023-12-20T07:04:48;21.77;;;4.57;;
52180;SDS011;38158;53.338;6.514;2023-12-20T07:07:14;25.88;;;5.35;;
52180;SDS011;38158;53.338;6.514;2023-12-20T07:09:40;20.90;;;5.22;;
52180;SDS011;38158;53.338;6.514;2023-12-20T07:12:08;23.42;;;4.03;;
52180;SDS011;38158;53.338;6.514;2023-12-20T07:14:37;17.25;;;3.95;;
52180;SDS011;38158;53.338;6.514;2023-12-20T07:17:03;27.13;;;6.97;;
52180;SDS011;38158;53.338;6.514;2023-12-20T07:19:28;18.65;;;3.30;;
52180;SDS011;38158;53.338;6.514;2023-12-20T07:21:54;23.00;;;4.93;;
52180;SDS011;38158;53.338;6.514;2023-12-20T07:24:20;19.55;;;4.15;;
52180;SDS011;38158;53.338;6.514;2023-12-20T07:26:45;20.73;;;4.10;;
52180;SDS011;38158;53.338;6.514;2023-12-20T07:29:11;24.73;;;4.65;;
52180;SDS011;38158;53.338;6.514;2023-12-20T07:31:36;27.40;;;3.85;;
52180;SDS011;38158;53.338;6.514;2023-12-20T07:34:03;22.30;;;4.67;;
52180;SDS011;38158;53.338;6.514;2023-12-20T07:36:28;23.77;;;4.30;;
52180;SDS011;38158;53.338;6.514;2023-12-20T07:38:54;19.58;;;4.13;;
52180;SDS011;38158;53.338;6.514;2023-12-20T07:41:20;23.27;;;4.03;;
52180;SDS011;38158;53.338;6.514;2023-12-20T07:43:46;29.57;;;4.53;;
52180;SDS011;38158;53.338;6.514;2023-12-20T07:46:12;18.92;;;4.00;;
52180;SDS011;38158;53.338;6.514;2023-12-20T07:48:38;23.90;;;4.03;;
52180;SDS011;38158;53.338;6.514;2023-12-20T07:51:04;24.38;;;5.00;;
52180;SDS011;38158;53.338;6.514;2023-12-20T07:53:32;28.80;;;4.05;;
52180;SDS011;38158;53.338;6.514;2023-12-20T07:55:58;22.05;;;3.80;;
52180;SDS011;38158;53.338;6.514;2023-12-20T07:58:23;20.35;;;3.08;;
52180;SDS011;38158;53.338;6.514;2023-12-20T08:00:49;20.50;;;4.25;;
52180;SDS011;38158;53.338;6.514;2023-12-20T08:03:15;25.33;;;4.10;;
52180;SDS011;38158;53.338;6.514;2023-12-20T08:05:41;19.15;;;3.72;;
52180;SDS011;38158;53.338;6.514;2023-12-20T08:08:06;25.70;;;5.05;;
52180;SDS011;38158;53.338;6.514;2023-12-20T08:10:32;18.55;;;3.78;;
52180;SDS011;38158;53.338;6.514;2023-12-20T08:12:58;22.92;;;4.28;;
52180;SDS011;38158;53.338;6.514;2023-12-20T08:15:24;17.63;;;3.80;;
52180;SDS011;38158;53.338;6.514;2023-12-20T08:17:49;24.25;;;5.65;;
52180;SDS011;38158;53.338;6.514;2023-12-20T08:20:16;13.20;;;2.00;;
52180;SDS011;38158;53.338;6.514;2023-12-20T08:22:42;8.15;;;1.85;;
52180;SDS011;38158;53.338;6.514;2023-12-20T08:25:08;8.90;;;2.30;;
52180;SDS011;38158;53.338;6.514;2023-12-20T08:27:34;14.60;;;1.75;;
52180;SDS011;38158;53.338;6.514;2023-12-20T08:30:05;10.98;;;1.90;;
52180;SDS011;38158;53.338;6.514;2023-12-20T08:32:31;9.02;;;1.58;;
52180;SDS011;38158;53.338;6.514;2023-12-20T08:34:57;11.20;;;2.13;;
52180;SDS011;38158;53.338;6.514;2023-12-20T08:37:23;14.55;;;2.05;;
52180;SDS011;38158;53.338;6.514;2023-12-20T08:39:49;13.73;;;1.92;;
52180;SDS011;38158;53.338;6.514;2023-12-20T08:42:14;12.18;;;1.83;;
52180;SDS011;38158;53.338;6.514;2023-12-20T08:44:40;10.98;;;1.80;;
52180;SDS011;38158;53.338;6.514;2023-12-20T08:47:05;16.90;;;2.25;;
52180;SDS011;38158;53.338;6.514;2023-12-20T08:49:31;9.63;;;1.38;;
52180;SDS011;38158;53.338;6.514;2023-12-20T08:51:57;8.88;;;1.38;;
52180;SDS011;38158;53.338;6.514;2023-12-20T08:54:22;6.80;;;1.35;;
52180;SDS011;38158;53.338;6.514;2023-12-20T08:56:48;8.32;;;1.42;;
52180;SDS011;38158;53.338;6.514;2023-12-20T08:59:14;12.68;;;2.05;;
52180;SDS011;38158;53.338;6.514;2023-12-20T09:01:39;10.65;;;2.10;;
52180;SDS011;38158;53.338;6.514;2023-12-20T09:04:05;5.40;;;1.05;;
52180;SDS011;38158;53.338;6.514;2023-12-20T09:06:31;13.95;;;1.50;;
52180;SDS011;38158;53.338;6.514;2023-12-20T09:08:57;8.68;;;1.42;;
52180;SDS011;38158;53.338;6.514;2023-12-20T09:11:22;13.93;;;2.10;;
52180;SDS011;38158;53.338;6.514;2023-12-20T09:13:48;11.55;;;1.60;;
52180;SDS011;38158;53.338;6.514;2023-12-20T09:16:14;13.98;;;1.33;;
52180;SDS011;38158;53.338;6.514;2023-12-20T09:18:41;11.93;;;2.42;;
52180;SDS011;38158;53.338;6.514;2023-12-20T09:21:07;13.87;;;2.63;;
52180;SDS011;38158;53.338;6.514;2023-12-20T09:23:32;13.57;;;1.85;;
52180;SDS011;38158;53.338;6.514;2023-12-20T09:26:00;18.13;;;2.10;;
52180;SDS011;38158;53.338;6.514;2023-12-20T09:28:26;17.52;;;2.00;;
52180;SDS011;38158;53.338;6.514;2023-12-20T09:30:51;13.32;;;1.90;;
52180;SDS011;38158;53.338;6.514;2023-12-20T09:33:18;9.93;;;1.90;;
52180;SDS011;38158;53.338;6.514;2023-12-20T09:35:44;12.32;;;2.08;;
52180;SDS011;38158;53.338;6.514;2023-12-20T09:38:10;14.32;;;1.80;;
52180;SDS011;38158;53.338;6.514;2023-12-20T09:40:36;11.60;;;2.00;;
52180;SDS011;38158;53.338;6.514;2023-12-20T09:43:10;11.40;;;2.17;;
52180;SDS011;38158;53.338;6.514;2023-12-20T09:45:38;12.02;;;1.75;;
52180;SDS011;38158;53.338;6.514;2023-12-20T09:48:05;12.70;;;1.95;;
52180;SDS011;38158;53.338;6.514;2023-12-20T09:50:32;16.65;;;2.30;;
52180;SDS011;38158;53.338;6.514;2023-12-20T09:53:00;11.77;;;1.70;;
52180;SDS011;38158;53.338;6.514;2023-12-20T09:55:27;14.40;;;2.45;;
52180;SDS011;38158;53.338;6.514;2023-12-20T09:57:55;12.30;;;1.88;;
52180;SDS011;38158;53.338;6.514;2023-12-20T10:00:21;16.55;;;1.67;;
52180;SDS011;38158;53.338;6.514;2023-12-20T10:05:29;11.48;;;1.52;;
52180;SDS011;38158;53.338;6.514;2023-12-20T10:07:56;12.45;;;2.22;;
52180;SDS011;38158;53.338;6.514;2023-12-20T10:10:22;16.63;;;2.40;;
52180;SDS011;38158;53.338;6.514;2023-12-20T10:13:04;10.60;;;2.47;;
52180;SDS011;38158;53.338;6.514;2023-12-20T10:15:34;16.98;;;2.40;;
52180;SDS011;38158;53.338;6.514;2023-12-20T10:18:01;13.63;;;2.25;;
52180;SDS011;38158;53.338;6.514;2023-12-20T10:20:28;17.55;;;2.55;;
52180;SDS011;38158;53.338;6.514;2023-12-20T10:22:54;19.60;;;2.05;;
52180;SDS011;38158;53.338;6.514;2023-12-20T10:25:21;15.10;;;2.13;;
52180;SDS011;38158;53.338;6.514;2023-12-20T10:27:47;9.60;;;1.80;;
52180;SDS011;38158;53.338;6.514;2023-12-20T10:30:13;14.90;;;2.30;;
52180;SDS011;38158;53.338;6.514;2023-12-20T10:32:39;13.53;;;2.20;;
52180;SDS011;38158;53.338;6.514;2023-12-20T10:35:06;16.90;;;2.50;;
52180;SDS011;38158;53.338;6.514;2023-12-20T10:37:35;13.07;;;2.13;;
52180;SDS011;38158;53.338;6.514;2023-12-20T10:40:03;15.23;;;2.75;;
52180;SDS011;38158;53.338;6.514;2023-12-20T10:42:31;19.23;;;2.85;;
52180;SDS011;38158;53.338;6.514;2023-12-20T10:44:59;15.88;;;2.50;;
52180;SDS011;38158;53.338;6.514;2023-12-20T10:47:25;14.57;;;2.60;;
52180;SDS011;38158;53.338;6.514;2023-12-20T10:49:54;19.40;;;3.33;;
52180;SDS011;38158;53.338;6.514;2023-12-20T10:52:22;13.77;;;3.05;;
52180;SDS011;38158;53.338;6.514;2023-12-20T10:54:48;19.23;;;3.20;;
52180;SDS011;38158;53.338;6.514;2023-12-20T10:57:14;13.25;;;2.75;;
52180;SDS011;38158;53.338;6.514;2023-12-20T10:59:44;17.48;;;2.80;;
52180;SDS011;38158;53.338;6.514;2023-12-20T11:02:12;15.40;;;2.67;;
52180;SDS011;38158;53.338;6.514;2023-12-20T11:09:58;15.98;;;3.50;;
52180;SDS011;38158;53.338;6.514;2023-12-20T11:12:32;28.35;;;4.28;;
52180;SDS011;38158;53.338;6.514;2023-12-20T11:15:05;22.30;;;6.28;;
52180;SDS011;38158;53.338;6.514;2023-12-20T11:17:32;21.45;;;3.38;;
52180;SDS011;38158;53.338;6.514;2023-12-20T11:22:24;16.50;;;3.53;;
52180;SDS011;38158;53.338;6.514;2023-12-20T11:24:51;14.68;;;2.72;;
52180;SDS011;38158;53.338;6.514;2023-12-20T11:27:18;25.60;;;3.90;;
52180;SDS011;38158;53.338;6.514;2023-12-20T11:29:51;20.33;;;2.78;;
52180;SDS011;38158;53.338;6.514;2023-12-20T11:34:50;15.23;;;2.85;;
52180;SDS011;38158;53.338;6.514;2023-12-20T11:37:21;19.17;;;2.85;;
52180;SDS011;38158;53.338;6.514;2023-12-20T11:39:54;17.73;;;3.40;;
52180;SDS011;38158;53.338;6.514;2023-12-20T11:42:21;18.95;;;3.47;;
52180;SDS011;38158;53.338;6.514;2023-12-20T11:44:47;15.52;;;2.70;;
52180;SDS011;38158;53.338;6.514;2023-12-20T11:47:13;15.02;;;3.13;;
52180;SDS011;38158;53.338;6.514;2023-12-20T11:49:40;23.20;;;3.92;;
52180;SDS011;38158;53.338;6.514;2023-12-20T11:52:06;12.45;;;2.80;;
52180;SDS011;38158;53.338;6.514;2023-12-20T11:54:32;17.30;;;3.50;;
52180;SDS011;38158;53.338;6.514;2023-12-20T11:56:57;17.13;;;3.50;;
52180;SDS011;38158;53.338;6.514;2023-12-20T11:59:23;23.92;;;3.42;;
52180;SDS011;38158;53.338;6.514;2023-12-20T12:01:49;16.42;;;3.60;;
52180;SDS011;38158;53.338;6.514;2023-12-20T12:04:16;18.40;;;3.53;;
52180;SDS011;38158;53.338;6.514;2023-12-20T12:06:43;22.63;;;3.83;;
52180;SDS011;38158;53.338;6.514;2023-12-20T12:11:35;20.50;;;3.03;;
52180;SDS011;38158;53.338;6.514;2023-12-20T12:14:01;21.02;;;5.55;;
52180;SDS011;38158;53.338;6.514;2023-12-20T12:16:26;21.70;;;4.10;;
52180;SDS011;38158;53.338;6.514;2023-12-20T12:18:56;16.70;;;3.10;;
52180;SDS011;38158;53.338;6.514;2023-12-20T12:21:22;20.35;;;3.10;;
52180;SDS011;38158;53.338;6.514;2023-12-20T12:23:48;13.73;;;3.00;;
52180;SDS011;38158;53.338;6.514;2023-12-20T12:26:14;15.20;;;2.28;;
52180;SDS011;38158;53.338;6.514;2023-12-20T12:28:40;10.57;;;2.40;;
52180;SDS011;38158;53.338;6.514;2023-12-20T12:31:06;14.35;;;3.08;;
52180;SDS011;38158;53.338;6.514;2023-12-20T12:33:32;18.25;;;3.00;;
52180;SDS011;38158;53.338;6.514;2023-12-20T12:35:59;25.05;;;4.55;;
52180;SDS011;38158;53.338;6.514;2023-12-20T12:38:26;13.82;;;2.38;;
52180;SDS011;38158;53.338;6.514;2023-12-20T12:40:52;16.52;;;2.22;;
52180;SDS011;38158;53.338;6.514;2023-12-20T12:43:19;11.82;;;2.45;;
52180;SDS011;38158;53.338;6.514;2023-12-20T12:45:44;17.33;;;3.08;;
52180;SDS011;38158;53.338;6.514;2023-12-20T12:48:10;10.80;;;2.03;;
52180;SDS011;38158;53.338;6.514;2023-12-20T12:50:36;10.07;;;2.80;;
52180;SDS011;38158;53.338;6.514;2023-12-20T12:53:01;12.90;;;2.45;;
52180;SDS011;38158;53.338;6.514;2023-12-20T12:55:27;12.77;;;2.88;;
52180;SDS011;38158;53.338;6.514;2023-12-20T12:57:54;11.82;;;1.80;;
52180;SDS011;38158;53.338;6.514;2023-12-20T13:00:20;15.18;;;2.40;;
52180;SDS011;38158;53.338;6.514;2023-12-20T13:02:46;17.95;;;2.35;;
52180;SDS011;38158;53.338;6.514;2023-12-20T13:05:12;18.23;;;2.33;;
52180;SDS011;38158;53.338;6.514;2023-12-20T13:07:38;9.65;;;2.05;;
52180;SDS011;38158;53.338;6.514;2023-12-20T13:10:04;8.87;;;1.90;;
52180;SDS011;38158;53.338;6.514;2023-12-20T13:12:31;10.52;;;1.83;;
52180;SDS011;38158;53.338;6.514;2023-12-20T13:14:57;18.13;;;3.17;;
52180;SDS011;38158;53.338;6.514;2023-12-20T13:17:23;11.65;;;1.85;;
52180;SDS011;38158;53.338;6.514;2023-12-20T13:19:48;13.73;;;2.22;;
52180;SDS011;38158;53.338;6.514;2023-12-20T13:22:15;17.15;;;2.47;;
52180;SDS011;38158;53.338;6.514;2023-12-20T13:24:41;8.35;;;1.55;;
52180;SDS011;38158;53.338;6.514;2023-12-20T13:27:09;19.35;;;2.72;;
52180;SDS011;38158;53.338;6.514;2023-12-20T13:29:35;11.75;;;1.90;;
52180;SDS011;38158;53.338;6.514;2023-12-20T13:32:00;8.05;;;1.20;;
52180;SDS011;38158;53.338;6.514;2023-12-20T13:34:28;11.63;;;2.20;;
52180;SDS011;38158;53.338;6.514;2023-12-20T13:36:54;12.70;;;2.40;;
52180;SDS011;38158;53.338;6.514;2023-12-20T13:39:21;11.18;;;1.80;;
52180;SDS011;38158;53.338;6.514;2023-12-20T13:41:47;9.80;;;2.00;;
52180;SDS011;38158;53.338;6.514;2023-12-20T13:44:13;12.18;;;1.90;;
52180;SDS011;38158;53.338;6.514;2023-12-20T13:46:39;8.70;;;2.03;;
52180;SDS011;38158;53.338;6.514;2023-12-20T13:49:06;8.38;;;1.48;;
52180;SDS011;38158;53.338;6.514;2023-12-20T13:51:32;9.38;;;1.70;;
52180;SDS011;38158;53.338;6.514;2023-12-20T13:53:58;10.85;;;2.03;;
52180;SDS011;38158;53.338;6.514;2023-12-20T13:56:24;9.77;;;2.03;;
52180;SDS011;38158;53.338;6.514;2023-12-20T13:58:50;10.63;;;1.35;;
52180;SDS011;38158;53.338;6.514;2023-12-20T14:01:16;5.60;;;1.30;;
52180;SDS011;38158;53.338;6.514;2023-12-20T14:03:42;13.13;;;1.70;;
52180;SDS011;38158;53.338;6.514;2023-12-20T14:06:07;7.22;;;2.10;;
52180;SDS011;38158;53.338;6.514;2023-12-20T14:08:33;11.90;;;1.90;;
52180;SDS011;38158;53.338;6.514;2023-12-20T14:10:59;9.35;;;1.70;;
52180;SDS011;38158;53.338;6.514;2023-12-20T14:13:26;10.05;;;2.13;;
52180;SDS011;38158;53.338;6.514;2023-12-20T14:15:52;10.38;;;1.95;;
52180;SDS011;38158;53.338;6.514;2023-12-20T14:18:19;10.82;;;1.67;;
52180;SDS011;38158;53.338;6.514;2023-12-20T14:20:45;9.02;;;1.90;;
52180;SDS011;38158;53.338;6.514;2023-12-20T14:23:12;12.82;;;2.05;;
52180;SDS011;38158;53.338;6.514;2023-12-20T14:25:40;9.05;;;1.55;;
52180;SDS011;38158;53.338;6.514;2023-12-20T14:28:07;10.10;;;1.80;;
52180;SDS011;38158;53.338;6.514;2023-12-20T14:30:32;10.98;;;1.90;;
52180;SDS011;38158;53.338;6.514;2023-12-20T14:33:00;10.98;;;1.88;;
52180;SDS011;38158;53.338;6.514;2023-12-20T14:35:25;9.52;;;1.05;;
52180;SDS011;38158;53.338;6.514;2023-12-20T14:37:51;10.35;;;1.88;;
52180;SDS011;38158;53.338;6.514;2023-12-20T14:40:17;10.48;;;1.48;;
52180;SDS011;38158;53.338;6.514;2023-12-20T14:42:43;9.48;;;1.15;;
52180;SDS011;38158;53.338;6.514;2023-12-20T14:45:09;6.65;;;0.90;;
52180;SDS011;38158;53.338;6.514;2023-12-20T14:47:35;7.97;;;1.38;;
52180;SDS011;38158;53.338;6.514;2023-12-20T14:50:04;6.60;;;1.23;;
52180;SDS011;38158;53.338;6.514;2023-12-20T14:52:31;5.03;;;0.93;;